Time;durP1;ratioP1;P1;durP2;ratioP2;P2;SDS_P1;SDS_P2;PMS_P1;PMS_P2;Temp;Humidity;BMP_temperature;BMP_pressure;BME280_temperature;BME280_humidity;BME280_pressure;Samples;Min_cycle;Max_cycle;Signal;HPM_P1;HPM_P2
2022/01/20 00:01:03;;;;;;;26.98;10.00;;;;;;;2.49;95.63;102379.28;5055879;28;20116;-55
2022/01/20 00:03:32;;;;;;;25.30;9.23;;;;;;;2.56;95.59;102384.75;5055720;28;20033;-54
2022/01/20 00:27:27;;;;;;;27.40;8.90;;;;;;;2.59;94.66;102389.78;5055693;28;20076;-53
2022/01/20 00:35:30;;;;;;;26.90;8.60;;;;;;;2.61;94.86;102391.25;5044727;28;20123;-54
2022/01/20 00:37:55;;;;;;;29.17;8.80;;;;;;;2.55;95.37;102389.34;5054746;28;20490;-54
2022/01/20 00:40:21;;;;;;;28.13;10.20;;;;;;;2.54;95.07;102400.50;5055243;28;20021;-52
2022/01/20 00:42:46;;;;;;;25.88;9.70;;;;;;;2.53;95.16;102399.69;5054698;28;20036;-54
2022/01/20 00:45:12;;;;;;;27.38;8.60;;;;;;;2.55;95.47;102400.28;5055120;28;20083;-54
2022/01/20 00:47:38;;;;;;;24.42;7.90;;;;;;;2.62;94.44;102394.81;5054068;28;20035;-54
2022/01/20 00:50:07;;;;;;;24.17;8.10;;;;;;;2.56;94.49;102392.94;5054571;28;20303;-54
2022/01/20 00:52:32;;;;;;;27.17;7.75;;;;;;;2.60;94.94;102394.16;5054837;28;20079;-52
2022/01/20 00:54:57;;;;;;;22.60;7.72;;;;;;;2.67;95.23;102381.34;5053794;28;20431;-54
2022/01/20 00:57:23;;;;;;;24.45;7.57;;;;;;;2.76;94.36;102385.53;5054637;28;20094;-54
2022/01/20 00:59:48;;;;;;;21.25;8.23;;;;;;;2.86;94.39;102398.72;5055326;28;20033;-55
2022/01/20 01:02:14;;;;;;;19.27;6.97;;;;;;;2.78;94.42;102402.56;5054464;28;20476;-53
2022/01/20 01:04:40;;;;;;;24.05;7.45;;;;;;;2.88;94.93;102398.53;5054515;28;20180;-54
2022/01/20 01:09:39;;;;;;;23.20;7.40;;;;;;;2.92;95.02;102395.16;5054276;28;20520;-52
2022/01/20 01:12:08;;;;;;;20.83;7.30;;;;;;;2.96;95.08;102403.75;5054889;28;20159;-52
2022/01/20 01:14:35;;;;;;;26.67;8.30;;;;;;;2.97;95.02;102421.84;5053776;28;20029;-55
2022/01/20 01:24:39;;;;;;;18.65;7.18;;;;;;;2.89;94.60;102406.50;5054238;28;20465;-55
2022/01/20 01:27:07;;;;;;;21.85;7.63;;;;;;;2.89;94.16;102414.69;5054661;28;20029;-53
2022/01/20 01:32:19;;;;;;;23.98;7.65;;;;;;;3.00;94.15;102415.91;5053822;28;20055;-53
2022/01/20 01:34:49;;;;;;;24.35;7.57;;;;;;;2.91;94.82;102423.53;5054614;28;20025;-54
2022/01/20 01:40:06;;;;;;;24.00;9.27;;;;;;;2.88;94.42;102414.94;5054187;28;20036;-53
2022/01/20 01:42:53;;;;;;;25.63;8.38;;;;;;;2.79;95.05;102406.13;5054080;28;20115;-53
2022/01/20 01:45:27;;;;;;;26.05;8.90;;;;;;;2.73;94.44;102401.50;5053562;28;20041;-54
2022/01/20 01:47:52;;;;;;;25.20;8.70;;;;;;;2.68;95.44;102402.16;5054204;28;20029;-56
2022/01/20 01:50:18;;;;;;;24.88;8.32;;;;;;;2.64;95.42;102409.94;5053232;28;20075;-55
2022/01/20 01:52:43;;;;;;;25.20;8.68;;;;;;;2.62;95.23;102408.47;5053965;28;20114;-54
2022/01/20 01:55:09;;;;;;;24.63;8.65;;;;;;;2.62;95.12;102411.19;5053380;28;20384;-54
2022/01/20 01:57:35;;;;;;;24.73;7.85;;;;;;;2.59;95.54;102409.75;5053447;28;20037;-50
2022/01/20 02:00:00;;;;;;;25.30;8.18;;;;;;;2.60;95.40;102411.41;5053922;28;20075;-55
2022/01/20 02:02:27;;;;;;;26.23;8.57;;;;;;;2.56;95.57;102407.41;5053704;28;20084;-51
2022/01/20 02:04:52;;;;;;;29.40;9.43;;;;;;;2.57;95.53;102411.84;5053424;28;20040;-53
2022/01/20 02:07:44;;;;;;;22.02;8.10;;;;;;;2.53;95.28;102412.47;5053818;28;20025;-54
2022/01/20 02:21:05;;;;;;;24.80;8.23;;;;;;;2.44;95.90;102422.81;5053718;28;19931;-54
2022/01/20 02:23:32;;;;;;;21.95;7.03;;;;;;;2.46;95.27;102427.00;5052731;28;20473;-52
2022/01/20 02:25:57;;;;;;;24.83;7.82;;;;;;;2.50;95.79;102425.50;5052704;28;20087;-52
2022/01/20 02:28:22;;;;;;;21.83;7.68;;;;;;;2.54;95.29;102415.03;5051559;28;20060;-54
2022/01/20 02:30:48;;;;;;;25.63;8.20;;;;;;;2.59;95.69;102417.09;5052960;28;20104;-51
2022/01/20 02:33:16;;;;;;;23.23;7.90;;;;;;;2.61;95.53;102406.78;5052446;28;20480;-50
2022/01/20 02:35:48;;;;;;;18.65;8.20;;;;;;;2.72;94.91;102419.78;5053862;28;20109;-53
2022/01/20 02:38:20;;;;;;;19.40;6.93;;;;;;;2.78;95.05;102409.91;5053124;28;20040;-54
2022/01/20 02:46:06;;;;;;;22.85;7.47;;;;;;;2.83;94.64;102396.44;5053437;28;20036;-54
2022/01/20 02:48:32;;;;;;;25.02;8.52;;;;;;;2.78;95.24;102394.34;5052422;28;20522;-54
2022/01/20 02:50:57;;;;;;;20.63;8.13;;;;;;;2.85;94.54;102398.94;5052259;28;20057;-53
2022/01/20 02:53:23;;;;;;;21.73;7.35;;;;;;;2.83;94.35;102401.03;5052746;28;20078;-53
2022/01/20 02:55:48;;;;;;;21.33;7.20;;;;;;;2.82;94.27;102408.41;5053133;28;20052;-52
2022/01/20 02:58:13;;;;;;;23.25;7.07;;;;;;;2.79;94.88;102406.94;5052660;28;20472;-52
2022/01/20 03:00:39;;;;;;;22.52;7.50;;;;;;;2.81;94.17;102409.47;5052620;28;20028;-54
2022/01/20 03:03:04;;;;;;;18.33;6.93;;;;;;;2.80;94.65;102396.84;5052166;28;20036;-53
2022/01/20 03:05:33;;;;;;;20.45;6.90;;;;;;;2.79;93.70;102400.66;5052455;28;20480;-54
2022/01/20 03:08:00;;;;;;;19.15;6.78;;;;;;;2.76;94.23;102404.66;5053097;28;20033;-54
2022/01/20 03:10:26;;;;;;;20.92;6.70;;;;;;;2.77;93.90;102395.41;5052968;28;20029;-56
2022/01/20 03:12:51;;;;;;;24.15;7.05;;;;;;;2.73;94.68;102396.88;5051137;28;20025;-52
2022/01/20 03:15:17;;;;;;;22.10;6.90;;;;;;;2.74;94.80;102403.19;5051629;28;20113;-52
2022/01/20 03:17:42;;;;;;;20.55;7.75;;;;;;;2.69;94.85;102398.38;5051169;28;20427;-53
2022/01/20 03:20:07;;;;;;;18.70;7.32;;;;;;;2.71;94.87;102385.31;5051921;28;20040;-55
2022/01/20 03:22:33;;;;;;;24.23;8.50;;;;;;;2.75;94.69;102382.97;5052625;28;20037;-52
2022/01/20 03:24:58;;;;;;;24.52;7.90;;;;;;;2.82;94.70;102372.88;5052587;28;20056;-54
2022/01/20 03:27:24;;;;;;;21.30;7.80;;;;;;;2.84;94.45;102383.59;5052384;28;20387;-53
2022/01/20 03:29:49;;;;;;;20.30;7.40;;;;;;;2.85;94.80;102374.34;5052466;28;20037;-55
2022/01/20 03:32:15;;;;;;;20.38;6.90;;;;;;;2.87;95.25;102383.19;5051859;28;20032;-51
2022/01/20 03:34:40;;;;;;;18.88;6.43;;;;;;;2.90;95.09;102388.19;5051927;28;20475;-54
2022/01/20 03:37:05;;;;;;;19.58;7.18;;;;;;;2.95;94.67;102380.19;5052256;28;20021;-54
2022/01/20 03:39:32;;;;;;;23.65;7.65;;;;;;;3.04;94.48;102376.16;5052219;28;20032;-54
2022/01/20 03:41:58;;;;;;;23.08;7.88;;;;;;;3.02;94.13;102375.53;5052500;28;20041;-53
2022/01/20 03:44:23;;;;;;;21.83;6.93;;;;;;;3.03;94.54;102379.94;5052846;28;20040;-52
2022/01/20 03:46:48;;;;;;;22.55;6.88;;;;;;;3.11;94.26;102387.88;5052171;28;20029;-56
2022/01/20 03:49:38;;;;;;;22.23;7.72;;;;;;;3.04;94.52;102387.09;5052117;28;20025;-56
2022/01/20 03:52:04;;;;;;;17.90;6.32;;;;;;;3.02;92.83;102423.91;5051986;28;20037;-52
2022/01/20 03:54:30;;;;;;;21.35;6.68;;;;;;;2.98;94.05;102404.34;5051637;28;20028;-55
2022/01/20 03:56:55;;;;;;;22.20;6.40;;;;;;;2.94;94.51;102405.84;5052294;28;20025;-55
2022/01/20 03:59:20;;;;;;;16.80;6.70;;;;;;;2.88;95.20;102393.88;5052611;28;20107;-55
2022/01/20 04:01:46;;;;;;;18.17;6.75;;;;;;;2.79;95.62;102409.66;5052271;28;20029;-53
2022/01/20 04:04:11;;;;;;;19.70;7.10;;;;;;;2.75;95.17;102402.97;5051628;28;20039;-53
2022/01/20 04:06:36;;;;;;;18.40;6.40;;;;;;;2.68;95.07;102395.84;5052477;28;20057;-54
2022/01/20 04:09:03;;;;;;;19.45;7.72;;;;;;;2.62;94.82;102398.38;5051980;28;20033;-51
2022/01/20 04:11:28;;;;;;;19.90;7.47;;;;;;;2.63;94.13;102405.53;5052147;28;20112;-54
2022/01/20 04:13:54;;;;;;;19.90;6.68;;;;;;;2.68;94.60;102409.50;5051926;28;20116;-51
2022/01/20 04:19:12;;;;;;;20.70;6.65;;;;;;;2.80;93.91;102416.00;5051685;28;20565;-50
2022/01/20 04:21:39;;;;;;;16.52;6.53;;;;;;;2.84;94.23;102405.47;5052045;28;20053;-51
2022/01/20 04:24:05;;;;;;;19.23;6.43;;;;;;;2.89;94.04;102414.69;5055743;28;20483;-51
2022/01/20 04:26:33;;;;;;;24.63;8.07;;;;;;;2.88;91.79;102425.84;5055369;28;20047;-51
2022/01/20 04:28:59;;;;;;;23.13;7.03;;;;;;;2.91;92.23;102426.25;5055736;28;20468;-51
2022/01/20 04:31:26;;;;;;;25.38;7.88;;;;;;;2.92;92.63;102430.69;5055638;28;20045;-50
2022/01/20 04:33:52;;;;;;;26.67;7.32;;;;;;;2.96;92.12;102425.63;5054112;28;20033;-52
2022/01/20 04:36:18;;;;;;;21.85;7.97;;;;;;;3.04;91.50;102438.19;5055277;28;20541;-55
2022/01/20 04:38:43;;;;;;;21.92;7.82;;;;;;;3.06;90.31;102444.28;5054809;28;20217;-53
2022/01/20 04:41:09;;;;;;;22.65;8.13;;;;;;;3.07;90.12;102441.31;5055720;28;20032;-54
2022/01/20 04:43:34;;;;;;;22.05;7.43;;;;;;;3.09;90.14;102447.41;5055144;28;20494;-54
2022/01/20 04:46:08;;;;;;;19.73;7.57;;;;;;;3.08;90.37;102448.47;5055610;28;20025;-53
2022/01/20 04:59:30;;;;;;;24.00;7.80;;;;;;;2.76;93.59;102448.38;5031793;28;20038;-53
2022/01/20 05:01:56;;;;;;;24.38;7.95;;;;;;;2.77;93.85;102471.06;5043782;28;20048;-54
2022/01/20 05:04:23;;;;;;;22.95;9.05;;;;;;;2.76;94.11;102472.13;5054424;28;20044;-54
2022/01/20 05:06:49;;;;;;;22.08;7.07;;;;;;;2.80;93.74;102471.47;5054768;28;20021;-53
2022/01/20 05:09:19;;;;;;;21.25;6.95;;;;;;;2.75;93.66;102476.75;5055158;28;20035;-54
2022/01/20 05:11:51;;;;;;;21.85;7.20;;;;;;;2.77;93.39;102468.34;5054857;28;20071;-55
2022/01/20 05:14:16;;;;;;;25.17;7.90;;;;;;;2.78;93.80;102468.16;5054340;28;20096;-53
2022/01/20 05:16:41;;;;;;;20.02;7.40;;;;;;;2.80;92.91;102476.13;5055123;28;20033;-54
2022/01/20 05:19:07;;;;;;;23.20;7.40;;;;;;;2.84;92.78;102487.47;5054174;28;20033;-54
2022/01/20 05:21:32;;;;;;;21.25;6.85;;;;;;;2.88;93.49;102507.88;5054306;28;20025;-51
2022/01/20 05:23:57;;;;;;;18.48;6.95;;;;;;;2.88;93.00;102491.47;5054438;28;20025;-54
2022/01/20 05:26:23;;;;;;;20.10;6.75;;;;;;;2.87;92.97;102493.34;5054373;28;20031;-52
2022/01/20 05:28:48;;;;;;;18.88;7.30;;;;;;;2.85;93.54;102497.34;5054002;28;20423;-54
2022/01/20 05:31:13;;;;;;;19.58;7.50;;;;;;;2.87;93.37;102500.72;5054631;28;20028;-54
2022/01/20 05:33:39;;;;;;;15.63;6.40;;;;;;;2.88;93.28;102511.44;5053292;28;20036;-55
2022/01/20 05:36:04;;;;;;;22.00;8.02;;;;;;;2.89;93.75;102523.19;5053860;28;20031;-54
2022/01/20 05:38:30;;;;;;;19.33;6.97;;;;;;;2.84;94.17;102526.56;5054500;28;20033;-54
2022/01/20 05:40:55;;;;;;;18.58;7.05;;;;;;;2.75;95.71;102534.16;5054434;28;20476;-51
2022/01/20 05:43:20;;;;;;;22.95;7.30;;;;;;;2.56;94.86;102586.94;5054085;28;20139;-53
2022/01/20 05:45:46;;;;;;;18.67;7.68;;;;;;;2.28;95.32;102566.09;5054000;28;20025;-54
2022/01/20 05:48:17;;;;;;;23.38;8.20;;;;;;;1.99;96.35;102557.22;5053765;28;20021;-53
2022/01/20 05:50:43;;;;;;;24.10;7.97;;;;;;;1.94;95.71;102540.59;5053319;28;20050;-53
2022/01/20 05:53:09;;;;;;;23.95;9.27;;;;;;;1.84;96.25;102536.38;5053323;28;20076;-54
2022/01/20 05:55:36;;;;;;;27.52;8.65;;;;;;;1.76;96.82;102552.09;5053539;28;20028;-51
2022/01/20 05:58:04;;;;;;;26.10;8.32;;;;;;;1.71;97.59;102545.38;5051967;28;20071;-52
2022/01/20 06:00:30;;;;;;;24.73;7.43;;;;;;;1.76;96.34;102550.22;5054042;28;20373;-51
2022/01/20 06:05:39;;;;;;;18.45;7.70;;;;;;;1.70;97.68;102557.31;5054342;28;20036;-53
2022/01/20 06:08:05;;;;;;;20.00;7.55;;;;;;;1.69;98.01;102547.47;5053344;28;20040;-54
2022/01/20 06:10:33;;;;;;;17.50;7.20;;;;;;;1.71;97.95;102550.81;5053972;28;20021;-53
2022/01/20 06:13:00;;;;;;;22.90;7.82;;;;;;;1.71;97.89;102555.44;5052852;28;20021;-50
2022/01/20 06:15:25;;;;;;;22.08;7.47;;;;;;;1.74;97.68;102554.19;5053299;28;20043;-52
2022/01/20 06:17:51;;;;;;;18.05;7.40;;;;;;;1.75;97.95;102564.91;5053407;28;20033;-51
2022/01/20 06:20:16;;;;;;;19.00;7.15;;;;;;;1.77;97.46;102565.53;5052084;28;20431;-54
2022/01/20 06:22:41;;;;;;;23.15;8.13;;;;;;;1.79;97.94;102573.53;5053693;28;20096;-54
2022/01/20 06:25:07;;;;;;;19.98;7.05;;;;;;;1.78;97.97;102575.41;5052823;28;20029;-53
2022/01/20 06:27:33;;;;;;;20.73;7.68;;;;;;;1.79;98.03;102579.00;5053383;28;20435;-54
2022/01/20 06:29:59;;;;;;;20.50;6.95;;;;;;;1.81;97.27;102585.94;5053712;28;20057;-54
2022/01/20 06:32:24;;;;;;;22.55;7.03;;;;;;;1.82;97.21;102579.44;5052225;28;20064;-55
2022/01/20 06:34:50;;;;;;;26.40;7.20;;;;;;;1.86;96.60;102582.59;5052808;28;20078;-52
2022/01/20 06:37:15;;;;;;;18.92;7.10;;;;;;;1.88;95.85;102591.41;5052869;28;20048;-52
2022/01/20 06:39:40;;;;;;;20.85;6.90;;;;;;;1.87;95.68;102587.00;5052379;28;20068;-53
2022/01/20 06:42:06;;;;;;;21.30;7.88;;;;;;;1.94;94.84;102598.78;5053606;28;20032;-55
2022/01/20 06:44:32;;;;;;;21.52;7.28;;;;;;;1.99;94.82;102598.16;5053441;28;20107;-53
2022/01/20 06:46:57;;;;;;;23.00;7.28;;;;;;;2.00;92.23;102599.84;5052225;28;20103;-51
2022/01/20 06:49:23;;;;;;;22.13;7.10;;;;;;;2.01;91.09;102596.91;5053403;28;20075;-54
2022/01/20 06:51:48;;;;;;;28.02;7.70;;;;;;;2.07;91.27;102610.78;5051745;28;20049;-53
2022/01/20 06:54:15;;;;;;;23.50;7.03;;;;;;;2.08;90.55;102601.56;5053052;28;20033;-53
2022/01/20 06:56:43;;;;;;;18.17;7.13;;;;;;;2.09;89.47;102616.88;5051182;28;20135;-52
2022/01/20 06:59:11;;;;;;;19.58;6.90;;;;;;;2.12;89.51;102630.13;5052433;28;20036;-52
2022/01/20 07:01:37;;;;;;;20.77;7.25;;;;;;;2.17;88.10;102635.81;5052269;28;20104;-51
2022/01/20 07:04:02;;;;;;;24.77;7.38;;;;;;;2.18;87.43;102635.59;5052714;28;20057;-53
2022/01/20 07:06:28;;;;;;;22.70;7.10;;;;;;;2.18;87.40;102643.81;5052457;28;20059;-55
2022/01/20 07:08:53;;;;;;;20.48;7.55;;;;;;;2.22;87.01;102646.13;5052334;28;20021;-55
2022/01/20 07:11:18;;;;;;;22.38;6.55;;;;;;;2.24;85.51;102647.59;5052668;28;20021;-54
2022/01/20 07:13:44;;;;;;;21.80;7.45;;;;;;;2.24;86.25;102644.88;5052865;28;20028;-53
2022/01/20 07:16:09;;;;;;;23.00;6.82;;;;;;;2.23;85.04;102639.59;5053050;28;20541;-55
2022/01/20 07:18:34;;;;;;;20.60;6.88;;;;;;;2.23;84.76;102642.31;5052966;28;20025;-55
2022/01/20 07:20:59;;;;;;;25.67;6.85;;;;;;;2.20;85.78;102646.31;5052470;28;20032;-54
2022/01/20 07:23:25;;;;;;;24.30;7.18;;;;;;;2.16;85.87;102654.06;5052569;28;20036;-54
2022/01/20 07:25:50;;;;;;;21.23;7.40;;;;;;;2.17;86.11;102654.94;5051246;28;20035;-54
2022/01/20 07:28:15;;;;;;;24.15;7.95;;;;;;;2.15;84.69;102657.84;5052359;28;20025;-54
2022/01/20 07:30:41;;;;;;;20.17;8.05;;;;;;;2.17;84.69;102660.41;5052269;28;20031;-53
2022/01/20 07:33:07;;;;;;;22.30;7.20;;;;;;;2.18;84.57;102660.19;5052173;28;20121;-56
2022/01/20 07:35:34;;;;;;;21.05;7.40;;;;;;;2.20;82.66;102657.25;5052601;28;20057;-55
2022/01/20 07:37:59;;;;;;;22.23;7.70;;;;;;;2.19;81.32;102671.94;5051759;28;20033;-54
2022/01/20 07:40:25;;;;;;;21.63;7.20;;;;;;;2.20;81.82;102670.88;5052690;28;20017;-55
2022/01/20 07:42:50;;;;;;;24.05;7.75;;;;;;;2.21;80.53;102682.69;5052522;28;20087;-53
2022/01/20 07:45:17;;;;;;;20.67;7.57;;;;;;;2.21;79.96;102669.03;5052544;28;20033;-55
2022/01/20 07:47:43;;;;;;;22.88;8.05;;;;;;;2.23;79.38;102673.22;5052883;28;20040;-56
2022/01/20 07:50:09;;;;;;;22.25;7.43;;;;;;;2.23;78.69;102672.38;5052481;28;20029;-56
2022/01/20 07:52:34;;;;;;;21.48;6.93;;;;;;;2.26;78.65;102681.00;5050221;28;20029;-53
2022/01/20 07:55:00;;;;;;;20.27;7.40;;;;;;;2.29;77.13;102680.59;5050668;28;20491;-54
2022/01/20 07:57:25;;;;;;;18.30;7.22;;;;;;;2.28;78.36;102686.25;5052211;28;20056;-54
2022/01/20 07:59:50;;;;;;;19.20;7.18;;;;;;;2.28;78.81;102695.28;5055376;28;20388;-55
2022/01/20 08:02:16;;;;;;;24.20;7.88;;;;;;;2.36;76.15;102693.44;5056667;28;20056;-55
2022/01/20 08:04:42;;;;;;;25.05;7.35;;;;;;;2.31;77.04;102702.25;5056061;28;20021;-52
2022/01/20 08:07:07;;;;;;;20.75;7.03;;;;;;;2.29;76.48;102696.97;5056307;28;20108;-53
2022/01/20 08:09:32;;;;;;;21.90;7.28;;;;;;;2.31;76.91;102702.25;5055699;28;20029;-54
2022/01/20 08:11:57;;;;;;;22.25;7.85;;;;;;;2.30;77.05;102716.94;5054765;28;20446;-52
2022/01/20 08:14:23;;;;;;;20.63;6.95;;;;;;;2.34;75.70;102718.22;5056053;28;20487;-53
2022/01/20 08:16:48;;;;;;;20.17;7.20;;;;;;;2.36;76.25;102718.84;5055850;28;20025;-52
2022/01/20 08:19:13;;;;;;;20.98;7.95;;;;;;;2.31;75.84;102707.72;5055863;28;20040;-54
2022/01/20 08:21:39;;;;;;;23.85;7.82;;;;;;;2.33;75.90;102717.38;5055674;28;20060;-54
2022/01/20 08:24:04;;;;;;;18.73;6.70;;;;;;;2.37;74.93;102725.16;5055805;28;20060;-53
2022/01/20 08:26:30;;;;;;;18.02;7.28;;;;;;;2.39;77.42;102725.78;5055876;28;20021;-55
2022/01/20 08:28:55;;;;;;;20.92;7.60;;;;;;;2.42;76.95;102728.13;5055737;28;20095;-54
2022/01/20 08:31:21;;;;;;;21.88;7.43;;;;;;;2.41;75.41;102748.28;5055069;28;20021;-54
2022/01/20 08:33:46;;;;;;;21.50;7.78;;;;;;;2.43;74.89;102729.81;5054811;28;20017;-54
2022/01/20 08:36:11;;;;;;;16.60;6.95;;;;;;;2.52;74.41;102746.84;5055110;28;20033;-54
2022/01/20 08:38:36;;;;;;;22.42;7.88;;;;;;;2.49;74.42;102748.09;5055711;28;20590;-55
2022/01/20 08:41:02;;;;;;;21.23;7.50;;;;;;;2.49;75.24;102742.63;5056107;28;20065;-51
2022/01/20 08:43:27;;;;;;;18.85;7.60;;;;;;;2.56;74.88;102740.75;5055915;28;20033;-55
2022/01/20 08:45:52;;;;;;;20.58;7.45;;;;;;;2.54;75.18;102747.50;5055515;28;20465;-53
2022/01/20 08:48:18;;;;;;;22.02;7.93;;;;;;;2.53;74.74;102756.72;5055216;28;20060;-53
2022/01/20 08:50:43;;;;;;;22.73;7.63;;;;;;;2.52;75.53;102758.63;5053327;28;20052;-54
2022/01/20 08:53:11;;;;;;;20.17;8.15;;;;;;;2.53;75.66;102760.31;5054895;28;20033;-54
2022/01/20 08:55:37;;;;;;;23.65;8.43;;;;;;;2.50;75.12;102763.44;5055554;28;20029;-54
2022/01/20 08:58:03;;;;;;;24.15;7.85;;;;;;;2.58;74.44;102763.28;5055508;28;20043;-56
2022/01/20 09:00:31;;;;;;;22.02;7.50;;;;;;;2.49;74.87;102761.75;5055273;28;20032;-55
2022/01/20 09:02:58;;;;;;;21.25;7.53;;;;;;;2.48;77.07;102760.06;5055412;28;20460;-55
2022/01/20 09:05:24;;;;;;;21.00;7.70;;;;;;;2.56;76.95;102765.34;5055191;28;20028;-53
2022/01/20 09:07:49;;;;;;;22.38;9.00;;;;;;;2.59;76.20;102781.34;5055229;28;20025;-54
2022/01/20 09:10:19;;;;;;;17.40;7.50;;;;;;;2.55;78.52;102773.78;5054204;28;20063;-54
2022/01/20 09:15:28;;;;;;;21.67;8.23;;;;;;;2.53;76.84;102784.06;5055493;28;20123;-54
2022/01/20 09:17:54;;;;;;;22.33;8.40;;;;;;;2.52;77.80;102768.69;5055120;28;20064;-54
2022/01/20 09:20:20;;;;;;;21.65;7.78;;;;;;;2.54;76.83;102775.66;5055225;28;20060;-54
2022/01/20 09:22:45;;;;;;;20.73;6.97;;;;;;;2.53;76.78;102776.72;5055179;28;20376;-54
2022/01/20 09:25:10;;;;;;;20.45;7.70;;;;;;;2.56;76.81;102773.56;5055068;28;20028;-55
2022/01/20 09:27:36;;;;;;;19.33;6.93;;;;;;;2.58;76.57;102773.38;5054866;28;20025;-55
2022/01/20 09:30:04;;;;;;;17.55;7.18;;;;;;;2.59;78.08;102772.31;5053679;28;20380;-52
2022/01/20 09:32:31;;;;;;;20.10;7.50;;;;;;;2.56;76.78;102781.75;5054699;28;20437;-54
2022/01/20 09:34:57;;;;;;;22.23;7.78;;;;;;;2.48;78.32;102773.75;5055249;28;20037;-54
2022/01/20 09:37:23;;;;;;;20.15;8.07;;;;;;;2.45;78.55;102771.44;5054693;28;20495;-53
2022/01/20 09:39:49;;;;;;;20.88;7.63;;;;;;;2.46;78.81;102773.09;5054591;28;20025;-54
2022/01/20 09:42:14;;;;;;;21.25;7.95;;;;;;;2.43;79.26;102760.69;5054419;28;20036;-55
2022/01/20 09:44:47;;;;;;;20.58;7.47;;;;;;;2.53;79.39;102764.94;5053318;28;20029;-53
2022/01/20 09:47:15;;;;;;;18.93;7.83;;;;;;;2.50;78.13;102777.94;5054460;28;20025;-53
2022/01/20 09:49:41;;;;;;;19.42;7.30;;;;;;;2.57;78.07;102788.91;5054986;28;20453;-55
2022/01/20 09:52:07;;;;;;;19.08;7.43;;;;;;;2.62;77.68;102796.50;5054613;28;20063;-52
2022/01/20 09:54:32;;;;;;;19.27;8.30;;;;;;;2.63;77.59;102799.03;5054560;28;20052;-55
2022/01/20 09:56:58;;;;;;;21.17;7.75;;;;;;;2.72;78.32;102802.41;5054525;28;20419;-53
2022/01/20 09:59:24;;;;;;;21.23;7.45;;;;;;;2.76;77.67;102809.16;5054280;28;20384;-55
2022/01/20 10:01:56;;;;;;;16.70;6.82;;;;;;;2.76;76.92;102805.56;5054316;28;20033;-52
2022/01/20 10:04:33;;;;;;;22.23;7.13;;;;;;;2.67;76.88;102815.00;5054316;28;20460;-53
2022/01/20 10:07:08;;;;;;;19.70;7.35;;;;;;;2.65;77.07;102817.94;5054144;28;20122;-52
2022/01/20 10:09:45;;;;;;;23.20;7.82;;;;;;;2.67;77.73;102820.47;5054187;28;20044;-55
2022/01/20 10:12:12;;;;;;;17.92;7.05;;;;;;;2.70;77.31;102822.81;5053949;28;20032;-53
2022/01/20 10:14:43;;;;;;;19.88;6.80;;;;;;;2.74;76.47;102835.03;5054138;28;20021;-54
2022/01/20 10:17:23;;;;;;;20.52;7.57;;;;;;;2.73;76.52;102817.78;5054136;28;20111;-52
2022/01/20 10:19:53;;;;;;;17.55;6.75;;;;;;;2.92;77.21;102829.84;5053857;28;20357;-55
2022/01/20 10:22:24;;;;;;;19.17;7.60;;;;;;;2.93;76.35;102828.75;5053831;28;20021;-55
2022/01/20 10:25:25;;;;;;;19.30;7.55;;;;;;;3.11;75.59;102849.25;5053834;28;20064;-54
2022/01/20 10:27:55;;;;;;;23.17;7.55;;;;;;;3.12;75.64;102843.56;5031619;28;20443;-55
2022/01/20 10:30:25;;;;;;;23.25;7.35;;;;;;;3.27;76.13;102842.50;5049856;28;20498;-55
2022/01/20 10:32:52;;;;;;;20.33;7.25;;;;;;;3.33;73.48;102854.53;5053533;28;20021;-55
2022/01/20 10:35:23;;;;;;;20.92;7.68;;;;;;;3.35;73.60;102861.50;5053546;28;20385;-55
2022/01/20 10:37:59;;;;;;;21.38;7.30;;;;;;;3.53;72.67;102865.53;5053627;28;20029;-55
2022/01/20 10:40:25;;;;;;;18.00;6.97;;;;;;;3.51;70.77;102856.66;5053660;28;20021;-54
2022/01/20 10:42:50;;;;;;;17.08;7.40;;;;;;;3.53;71.19;102862.78;5053423;28;20028;-60
2022/01/20 10:45:24;;;;;;;21.98;8.10;;;;;;;3.57;71.74;102864.88;5053315;28;20017;-53
2022/01/20 10:47:52;;;;;;;15.98;7.10;;;;;;;3.53;70.93;102849.94;5053676;28;20036;-55
2022/01/20 10:50:22;;;;;;;19.65;7.22;;;;;;;3.58;68.37;102863.84;5053244;28;20021;-54
2022/01/20 10:52:49;;;;;;;20.80;7.50;;;;;;;3.58;67.50;102880.25;5053229;28;20040;-54
2022/01/20 10:55:20;;;;;;;17.77;7.38;;;;;;;3.55;68.22;102899.81;5053554;28;20108;-55
2022/01/20 10:57:45;;;;;;;17.15;7.68;;;;;;;3.51;68.25;102889.50;5053462;28;20029;-54
2022/01/20 11:00:15;;;;;;;19.65;7.85;;;;;;;3.41;68.31;102888.03;5053305;28;20021;-56
2022/01/20 11:02:41;;;;;;;22.60;7.88;;;;;;;3.30;69.78;102891.34;5052315;28;20033;-55
2022/01/20 11:05:07;;;;;;;22.88;7.80;;;;;;;3.20;71.16;102888.16;5053132;28;20021;-55
2022/01/20 11:07:33;;;;;;;18.88;7.45;;;;;;;3.11;71.59;102888.34;5053296;28;20028;-55
2022/01/20 11:10:02;;;;;;;20.30;7.95;;;;;;;3.12;73.61;102878.25;5053144;28;20035;-54
2022/01/20 11:12:28;;;;;;;23.05;8.23;;;;;;;3.11;73.88;102871.94;5052976;28;20033;-54
2022/01/20 11:14:55;;;;;;;22.25;7.70;;;;;;;3.15;73.39;102874.28;5053262;28;20091;-55
2022/01/20 11:17:23;;;;;;;19.63;7.50;;;;;;;3.12;73.41;102872.78;5053030;28;20021;-54
2022/01/20 11:19:50;;;;;;;20.27;7.72;;;;;;;3.25;73.61;102885.66;5053092;28;20056;-54
2022/01/20 11:22:17;;;;;;;22.23;7.60;;;;;;;3.30;71.10;102879.59;5052887;28;20040;-54
2022/01/20 11:24:43;;;;;;;20.90;7.65;;;;;;;3.50;72.16;102891.38;5052874;28;20407;-55
2022/01/20 11:27:12;;;;;;;20.00;7.97;;;;;;;3.61;69.61;102883.63;5052910;28;20037;-53
2022/01/20 11:29:49;;;;;;;18.95;7.47;;;;;;;3.56;69.51;102867.81;5052432;28;20025;-53
2022/01/20 11:32:23;;;;;;;22.75;8.25;;;;;;;3.49;69.23;102883.41;5053415;28;20514;-54
2022/01/20 11:35:01;;;;;;;16.60;7.07;;;;;;;3.42;68.65;102858.75;5056464;28;20037;-54
2022/01/20 11:37:34;;;;;;;22.73;7.80;;;;;;;3.45;68.70;102855.59;5056709;28;20021;-53
2022/01/20 11:40:11;;;;;;;20.67;6.90;;;;;;;3.61;68.66;102859.84;5056627;28;20441;-54
2022/01/20 11:42:37;;;;;;;19.05;7.60;;;;;;;3.72;67.26;102859.22;5055427;28;20480;-52
2022/01/20 11:45:22;;;;;;;20.05;7.93;;;;;;;3.79;67.12;102847.41;5054534;28;20039;-52
2022/01/20 11:47:48;;;;;;;20.02;7.63;;;;;;;3.69;67.63;102845.06;5054336;28;20499;-54
2022/01/20 11:50:18;;;;;;;18.95;8.85;;;;;;;3.70;66.75;102842.16;5054223;28;20075;-52
2022/01/20 11:52:43;;;;;;;18.70;7.75;;;;;;;3.69;66.45;102848.69;5054485;28;20052;-52
2022/01/20 11:55:14;;;;;;;22.00;7.72;;;;;;;3.57;66.72;102840.25;5054513;28;20025;-54
2022/01/20 11:57:39;;;;;;;21.98;7.82;;;;;;;3.64;66.08;102845.72;5054429;28;20029;-51
2022/01/20 12:00:22;;;;;;;17.90;7.10;;;;;;;3.61;66.13;102845.28;5054272;28;20079;-53
2022/01/20 12:02:47;;;;;;;19.42;7.75;;;;;;;3.69;66.03;102859.63;5054505;28;20032;-53
2022/01/20 12:05:29;;;;;;;20.15;7.88;;;;;;;3.71;66.51;102837.50;5054370;28;20036;-55
2022/01/20 12:08:24;;;;;;;17.65;7.38;;;;;;;3.83;66.27;102849.50;5053573;28;20037;-52
2022/01/20 12:11:01;;;;;;;24.27;7.70;;;;;;;3.81;65.19;102834.34;5048676;28;20102;-54
2022/01/20 12:13:27;;;;;;;17.90;7.22;;;;;;;3.91;65.14;102837.50;5052352;28;20108;-53
2022/01/20 12:15:58;;;;;;;18.60;7.55;;;;;;;4.08;65.90;102839.81;5053884;28;20125;-52
2022/01/20 12:18:24;;;;;;;15.63;7.00;;;;;;;4.24;64.79;102828.38;5054259;28;20033;-53
2022/01/20 12:20:50;;;;;;;25.88;8.18;;;;;;;4.29;62.16;102836.81;5054010;28;20029;-53
2022/01/20 12:23:17;;;;;;;15.75;7.03;;;;;;;4.30;61.23;102827.50;5053771;28;20116;-48
2022/01/20 12:25:43;;;;;;;21.02;8.82;;;;;;;4.26;61.14;102839.97;5053762;28;20040;-53
2022/01/20 12:28:11;;;;;;;16.00;6.60;;;;;;;4.12;60.57;102832.81;5053731;28;20051;-51
2022/01/20 12:30:40;;;;;;;20.15;7.65;;;;;;;4.13;60.54;102840.00;5053607;28;20472;-53
2022/01/20 12:33:13;;;;;;;16.55;7.28;;;;;;;4.05;61.94;102838.34;5053633;28;20033;-57
2022/01/20 12:35:41;;;;;;;18.45;7.00;;;;;;;3.98;61.96;102835.59;5053566;28;20041;-54
2022/01/20 12:38:39;;;;;;;15.77;6.80;;;;;;;4.00;63.25;102847.19;5052761;28;20025;-53
2022/01/20 12:41:20;;;;;;;17.33;6.75;;;;;;;3.97;62.66;102830.34;5051975;28;20048;-52
2022/01/20 12:43:53;;;;;;;16.13;6.72;;;;;;;3.99;63.60;102840.03;5053333;28;20032;-55